sensor_id;sensor_type;location;lat;lon;timestamp;P1;durP1;ratioP1;P2;durP2;ratioP2
25854;SDS011;13680;49.936;11.344;2023-04-25T00:01:20;8.63;;;6.60;;
25854;SDS011;13680;49.936;11.344;2023-04-25T00:03:46;9.82;;;6.90;;
25854;SDS011;13680;49.936;11.344;2023-04-25T00:06:12;11.73;;;7.22;;
25854;SDS011;13680;49.936;11.344;2023-04-25T00:08:37;11.60;;;7.03;;
25854;SDS011;13680;49.936;11.344;2023-04-25T00:11:03;9.88;;;7.05;;
25854;SDS011;13680;49.936;11.344;2023-04-25T00:13:28;11.98;;;7.35;;
25854;SDS011;13680;49.936;11.344;2023-04-25T00:15:54;9.93;;;7.05;;
25854;SDS011;13680;49.936;11.344;2023-04-25T00:18:21;12.02;;;7.35;;
25854;SDS011;13680;49.936;11.344;2023-04-25T00:20:46;11.00;;;6.75;;
25854;SDS011;13680;49.936;11.344;2023-04-25T00:23:15;9.65;;;6.75;;
25854;SDS011;13680;49.936;11.344;2023-04-25T00:25:43;9.00;;;6.50;;
25854;SDS011;13680;49.936;11.344;2023-04-25T00:28:10;10.15;;;6.28;;
25854;SDS011;13680;49.936;11.344;2023-04-25T00:30:36;10.40;;;6.55;;
25854;SDS011;13680;49.936;11.344;2023-04-25T00:33:01;11.90;;;6.72;;
25854;SDS011;13680;49.936;11.344;2023-04-25T00:35:26;10.73;;;7.15;;
25854;SDS011;13680;49.936;11.344;2023-04-25T00:37:52;9.18;;;6.75;;
25854;SDS011;13680;49.936;11.344;2023-04-25T00:40:17;9.32;;;6.95;;
25854;SDS011;13680;49.936;11.344;2023-04-25T00:42:42;9.35;;;6.70;;
25854;SDS011;13680;49.936;11.344;2023-04-25T00:45:10;11.15;;;6.28;;
25854;SDS011;13680;49.936;11.344;2023-04-25T00:47:39;7.30;;;5.93;;
25854;SDS011;13680;49.936;11.344;2023-04-25T00:50:05;10.30;;;6.68;;
25854;SDS011;13680;49.936;11.344;2023-04-25T00:52:31;9.32;;;6.20;;
25854;SDS011;13680;49.936;11.344;2023-04-25T00:54:57;10.60;;;6.80;;
25854;SDS011;13680;49.936;11.344;2023-04-25T00:57:22;8.30;;;6.18;;
25854;SDS011;13680;49.936;11.344;2023-04-25T00:59:47;7.32;;;5.85;;
25854;SDS011;13680;49.936;11.344;2023-04-25T01:02:15;8.55;;;5.80;;
25854;SDS011;13680;49.936;11.344;2023-04-25T01:04:41;8.63;;;6.20;;
25854;SDS011;13680;49.936;11.344;2023-04-25T01:07:06;6.85;;;5.82;;
25854;SDS011;13680;49.936;11.344;2023-04-25T01:09:32;6.93;;;5.43;;
25854;SDS011;13680;49.936;11.344;2023-04-25T01:11:57;9.30;;;5.53;;
25854;SDS011;13680;49.936;11.344;2023-04-25T01:14:23;11.35;;;6.10;;
25854;SDS011;13680;49.936;11.344;2023-04-25T01:16:48;8.45;;;6.18;;
25854;SDS011;13680;49.936;11.344;2023-04-25T01:19:14;10.13;;;6.28;;
25854;SDS011;13680;49.936;11.344;2023-04-25T01:21:43;12.13;;;5.90;;
25854;SDS011;13680;49.936;11.344;2023-04-25T01:24:08;7.28;;;5.30;;
25854;SDS011;13680;49.936;11.344;2023-04-25T01:26:34;9.40;;;5.50;;
25854;SDS011;13680;49.936;11.344;2023-04-25T01:29:00;8.20;;;5.60;;
25854;SDS011;13680;49.936;11.344;2023-04-25T01:31:26;8.93;;;5.85;;
25854;SDS011;13680;49.936;11.344;2023-04-25T01:33:53;7.97;;;5.30;;
25854;SDS011;13680;49.936;11.344;2023-04-25T01:36:18;8.52;;;5.78;;
25854;SDS011;13680;49.936;11.344;2023-04-25T01:38:44;8.35;;;5.60;;
25854;SDS011;13680;49.936;11.344;2023-04-25T01:41:11;9.52;;;5.53;;
25854;SDS011;13680;49.936;11.344;2023-04-25T01:43:36;6.53;;;5.10;;
25854;SDS011;13680;49.936;11.344;2023-04-25T01:46:01;8.20;;;5.75;;
25854;SDS011;13680;49.936;11.344;2023-04-25T01:48:27;8.55;;;5.70;;
25854;SDS011;13680;49.936;11.344;2023-04-25T01:50:52;9.93;;;5.30;;
25854;SDS011;13680;49.936;11.344;2023-04-25T01:53:17;8.48;;;5.55;;
25854;SDS011;13680;49.936;11.344;2023-04-25T01:55:43;8.05;;;5.80;;
25854;SDS011;13680;49.936;11.344;2023-04-25T01:58:08;7.82;;;5.80;;
25854;SDS011;13680;49.936;11.344;2023-04-25T02:00:35;7.97;;;5.78;;
25854;SDS011;13680;49.936;11.344;2023-04-25T02:03:03;7.13;;;5.50;;
25854;SDS011;13680;49.936;11.344;2023-04-25T02:05:33;10.35;;;5.90;;
25854;SDS011;13680;49.936;11.344;2023-04-25T02:08:02;6.97;;;5.30;;
25854;SDS011;13680;49.936;11.344;2023-04-25T02:10:28;7.70;;;5.60;;
25854;SDS011;13680;49.936;11.344;2023-04-25T02:12:53;6.68;;;5.43;;
25854;SDS011;13680;49.936;11.344;2023-04-25T02:15:18;6.55;;;4.95;;
25854;SDS011;13680;49.936;11.344;2023-04-25T02:17:44;7.72;;;5.78;;
25854;SDS011;13680;49.936;11.344;2023-04-25T02:20:10;8.85;;;5.50;;
25854;SDS011;13680;49.936;11.344;2023-04-25T02:22:36;8.30;;;5.93;;
25854;SDS011;13680;49.936;11.344;2023-04-25T02:25:02;9.73;;;5.68;;
25854;SDS011;13680;49.936;11.344;2023-04-25T02:27:29;9.95;;;5.63;;
25854;SDS011;13680;49.936;11.344;2023-04-25T02:29:55;8.13;;;5.68;;
25854;SDS011;13680;49.936;11.344;2023-04-25T02:32:20;7.53;;;5.70;;
25854;SDS011;13680;49.936;11.344;2023-04-25T02:34:45;11.20;;;5.30;;
25854;SDS011;13680;49.936;11.344;2023-04-25T02:37:11;7.70;;;5.78;;
25854;SDS011;13680;49.936;11.344;2023-04-25T02:39:37;10.65;;;5.40;;
25854;SDS011;13680;49.936;11.344;2023-04-25T02:42:02;8.07;;;5.32;;
25854;SDS011;13680;49.936;11.344;2023-04-25T02:44:28;7.47;;;5.70;;
25854;SDS011;13680;49.936;11.344;2023-04-25T02:46:53;8.90;;;5.85;;
25854;SDS011;13680;49.936;11.344;2023-04-25T02:49:18;8.68;;;5.53;;
25854;SDS011;13680;49.936;11.344;2023-04-25T02:51:43;10.35;;;5.88;;
25854;SDS011;13680;49.936;11.344;2023-04-25T02:54:09;7.75;;;5.82;;
25854;SDS011;13680;49.936;11.344;2023-04-25T02:56:34;9.02;;;6.15;;
25854;SDS011;13680;49.936;11.344;2023-04-25T02:59:00;9.35;;;5.65;;
25854;SDS011;13680;49.936;11.344;2023-04-25T03:01:25;8.55;;;5.95;;
25854;SDS011;13680;49.936;11.344;2023-04-25T03:03:50;9.85;;;6.07;;
25854;SDS011;13680;49.936;11.344;2023-04-25T03:06:16;8.13;;;5.72;;
25854;SDS011;13680;49.936;11.344;2023-04-25T03:08:41;10.25;;;5.55;;
25854;SDS011;13680;49.936;11.344;2023-04-25T03:11:06;8.32;;;5.75;;
25854;SDS011;13680;49.936;11.344;2023-04-25T03:13:31;7.85;;;5.47;;
25854;SDS011;13680;49.936;11.344;2023-04-25T03:15:57;10.02;;;5.85;;
25854;SDS011;13680;49.936;11.344;2023-04-25T03:18:22;9.07;;;5.80;;
25854;SDS011;13680;49.936;11.344;2023-04-25T03:20:47;10.07;;;6.25;;
25854;SDS011;13680;49.936;11.344;2023-04-25T03:23:13;8.07;;;5.80;;
25854;SDS011;13680;49.936;11.344;2023-04-25T03:25:38;10.07;;;5.70;;
25854;SDS011;13680;49.936;11.344;2023-04-25T03:28:03;9.00;;;6.53;;
25854;SDS011;13680;49.936;11.344;2023-04-25T03:30:29;8.50;;;6.25;;
25854;SDS011;13680;49.936;11.344;2023-04-25T03:32:54;8.90;;;6.35;;
25854;SDS011;13680;49.936;11.344;2023-04-25T03:35:20;11.63;;;6.93;;
25854;SDS011;13680;49.936;11.344;2023-04-25T03:37:45;7.80;;;6.28;;
25854;SDS011;13680;49.936;11.344;2023-04-25T03:40:11;9.48;;;6.57;;
25854;SDS011;13680;49.936;11.344;2023-04-25T03:42:36;11.48;;;6.25;;
25854;SDS011;13680;49.936;11.344;2023-04-25T03:45:01;11.35;;;6.47;;
25854;SDS011;13680;49.936;11.344;2023-04-25T03:47:27;8.68;;;6.65;;
25854;SDS011;13680;49.936;11.344;2023-04-25T03:49:52;12.05;;;6.75;;
25854;SDS011;13680;49.936;11.344;2023-04-25T03:52:17;9.25;;;6.70;;
25854;SDS011;13680;49.936;11.344;2023-04-25T03:54:43;9.30;;;6.82;;
25854;SDS011;13680;49.936;11.344;2023-04-25T03:57:08;8.85;;;6.57;;
25854;SDS011;13680;49.936;11.344;2023-04-25T03:59:33;9.35;;;6.30;;
25854;SDS011;13680;49.936;11.344;2023-04-25T04:01:59;9.50;;;6.30;;
25854;SDS011;13680;49.936;11.344;2023-04-25T04:04:24;7.68;;;5.85;;
25854;SDS011;13680;49.936;11.344;2023-04-25T04:06:50;9.18;;;6.47;;
25854;SDS011;13680;49.936;11.344;2023-04-25T04:09:15;8.45;;;6.53;;
25854;SDS011;13680;49.936;11.344;2023-04-25T04:11:41;10.02;;;5.95;;
25854;SDS011;13680;49.936;11.344;2023-04-25T04:14:07;9.95;;;6.72;;
25854;SDS011;13680;49.936;11.344;2023-04-25T04:16:32;10.75;;;7.00;;
25854;SDS011;13680;49.936;11.344;2023-04-25T04:18:58;10.88;;;7.05;;
25854;SDS011;13680;49.936;11.344;2023-04-25T04:21:23;11.50;;;7.00;;
25854;SDS011;13680;49.936;11.344;2023-04-25T04:23:48;11.80;;;8.02;;
25854;SDS011;13680;49.936;11.344;2023-04-25T04:26:14;10.80;;;7.20;;
25854;SDS011;13680;49.936;11.344;2023-04-25T04:28:41;10.48;;;7.40;;
25854;SDS011;13680;49.936;11.344;2023-04-25T04:31:09;10.63;;;6.10;;
25854;SDS011;13680;49.936;11.344;2023-04-25T04:33:35;11.57;;;6.75;;
25854;SDS011;13680;49.936;11.344;2023-04-25T04:36:01;8.80;;;6.13;;
25854;SDS011;13680;49.936;11.344;2023-04-25T04:38:27;8.48;;;5.93;;
25854;SDS011;13680;49.936;11.344;2023-04-25T04:40:54;7.07;;;5.47;;
25854;SDS011;13680;49.936;11.344;2023-04-25T04:43:19;8.32;;;5.60;;
25854;SDS011;13680;49.936;11.344;2023-04-25T04:45:44;9.52;;;5.57;;
25854;SDS011;13680;49.936;11.344;2023-04-25T04:48:10;11.15;;;5.53;;
25854;SDS011;13680;49.936;11.344;2023-04-25T04:50:36;10.00;;;5.45;;
25854;SDS011;13680;49.936;11.344;2023-04-25T04:53:02;6.55;;;4.60;;
25854;SDS011;13680;49.936;11.344;2023-04-25T04:55:29;6.15;;;4.35;;
25854;SDS011;13680;49.936;11.344;2023-04-25T04:57:54;7.05;;;4.18;;
25854;SDS011;13680;49.936;11.344;2023-04-25T05:00:19;4.90;;;3.60;;
25854;SDS011;13680;49.936;11.344;2023-04-25T05:02:45;5.68;;;4.32;;
25854;SDS011;13680;49.936;11.344;2023-04-25T05:05:11;6.07;;;3.95;;
25854;SDS011;13680;49.936;11.344;2023-04-25T05:07:36;5.32;;;3.95;;
25854;SDS011;13680;49.936;11.344;2023-04-25T05:10:02;5.13;;;3.90;;
25854;SDS011;13680;49.936;11.344;2023-04-25T05:12:28;4.53;;;3.70;;
25854;SDS011;13680;49.936;11.344;2023-04-25T05:14:53;5.53;;;3.85;;
25854;SDS011;13680;49.936;11.344;2023-04-25T05:17:19;5.90;;;3.67;;
25854;SDS011;13680;49.936;11.344;2023-04-25T05:19:44;5.90;;;3.53;;
25854;SDS011;13680;49.936;11.344;2023-04-25T05:22:09;5.35;;;3.75;;
25854;SDS011;13680;49.936;11.344;2023-04-25T05:24:35;3.22;;;2.58;;
25854;SDS011;13680;49.936;11.344;2023-04-25T05:27:00;4.65;;;2.50;;
25854;SDS011;13680;49.936;11.344;2023-04-25T05:29:26;5.18;;;2.30;;
25854;SDS011;13680;49.936;11.344;2023-04-25T05:31:51;3.42;;;2.30;;
25854;SDS011;13680;49.936;11.344;2023-04-25T05:34:16;2.05;;;1.85;;
25854;SDS011;13680;49.936;11.344;2023-04-25T05:36:42;3.33;;;2.17;;
25854;SDS011;13680;49.936;11.344;2023-04-25T05:39:07;2.45;;;2.10;;
25854;SDS011;13680;49.936;11.344;2023-04-25T05:41:33;4.20;;;2.42;;
25854;SDS011;13680;49.936;11.344;2023-04-25T05:43:59;3.10;;;2.70;;
25854;SDS011;13680;49.936;11.344;2023-04-25T05:46:24;3.00;;;2.35;;
25854;SDS011;13680;49.936;11.344;2023-04-25T05:48:49;3.28;;;2.80;;
25854;SDS011;13680;49.936;11.344;2023-04-25T05:51:15;3.80;;;2.63;;
25854;SDS011;13680;49.936;11.344;2023-04-25T05:53:41;2.80;;;2.50;;
25854;SDS011;13680;49.936;11.344;2023-04-25T05:56:06;2.78;;;2.50;;
25854;SDS011;13680;49.936;11.344;2023-04-25T05:58:31;3.28;;;2.70;;
25854;SDS011;13680;49.936;11.344;2023-04-25T06:00:57;4.93;;;2.88;;
25854;SDS011;13680;49.936;11.344;2023-04-25T06:03:23;3.88;;;2.90;;
25854;SDS011;13680;49.936;11.344;2023-04-25T06:05:48;5.53;;;2.95;;
25854;SDS011;13680;49.936;11.344;2023-04-25T06:08:13;4.10;;;2.95;;
25854;SDS011;13680;49.936;11.344;2023-04-25T06:10:38;4.57;;;3.17;;
25854;SDS011;13680;49.936;11.344;2023-04-25T06:13:04;6.72;;;3.60;;
25854;SDS011;13680;49.936;11.344;2023-04-25T06:15:30;3.72;;;2.97;;
25854;SDS011;13680;49.936;11.344;2023-04-25T06:17:57;8.63;;;3.60;;
25854;SDS011;13680;49.936;11.344;2023-04-25T06:20:22;4.05;;;3.53;;
25854;SDS011;13680;49.936;11.344;2023-04-25T06:22:49;5.07;;;4.18;;
25854;SDS011;13680;49.936;11.344;2023-04-25T06:25:16;4.90;;;3.63;;
25854;SDS011;13680;49.936;11.344;2023-04-25T06:27:42;5.22;;;3.75;;
25854;SDS011;13680;49.936;11.344;2023-04-25T06:30:07;5.18;;;3.50;;
25854;SDS011;13680;49.936;11.344;2023-04-25T06:32:33;5.00;;;3.55;;
25854;SDS011;13680;49.936;11.344;2023-04-25T06:34:59;4.70;;;3.63;;
25854;SDS011;13680;49.936;11.344;2023-04-25T06:37:24;8.15;;;4.45;;
25854;SDS011;13680;49.936;11.344;2023-04-25T06:39:50;5.60;;;4.00;;
25854;SDS011;13680;49.936;11.344;2023-04-25T06:42:15;5.07;;;3.83;;
25854;SDS011;13680;49.936;11.344;2023-04-25T06:44:41;6.07;;;4.05;;
25854;SDS011;13680;49.936;11.344;2023-04-25T06:47:06;6.65;;;4.28;;
25854;SDS011;13680;49.936;11.344;2023-04-25T06:49:31;7.13;;;4.60;;
25854;SDS011;13680;49.936;11.344;2023-04-25T06:51:56;7.88;;;4.13;;
25854;SDS011;13680;49.936;11.344;2023-04-25T06:54:22;6.80;;;4.15;;
25854;SDS011;13680;49.936;11.344;2023-04-25T06:56:47;5.45;;;4.00;;
25854;SDS011;13680;49.936;11.344;2023-04-25T06:59:12;6.40;;;4.30;;
25854;SDS011;13680;49.936;11.344;2023-04-25T07:01:38;7.53;;;4.43;;
25854;SDS011;13680;49.936;11.344;2023-04-25T07:04:03;8.48;;;4.22;;
25854;SDS011;13680;49.936;11.344;2023-04-25T07:06:28;6.07;;;4.03;;
25854;SDS011;13680;49.936;11.344;2023-04-25T07:08:54;7.07;;;4.55;;
25854;SDS011;13680;49.936;11.344;2023-04-25T07:11:19;7.20;;;4.80;;
25854;SDS011;13680;49.936;11.344;2023-04-25T07:13:45;8.95;;;4.53;;
25854;SDS011;13680;49.936;11.344;2023-04-25T07:16:10;6.82;;;4.72;;
25854;SDS011;13680;49.936;11.344;2023-04-25T07:18:35;10.40;;;5.38;;
25854;SDS011;13680;49.936;11.344;2023-04-25T07:21:01;9.82;;;5.88;;
25854;SDS011;13680;49.936;11.344;2023-04-25T07:23:26;10.77;;;5.72;;
25854;SDS011;13680;49.936;11.344;2023-04-25T07:25:51;10.20;;;5.72;;
25854;SDS011;13680;49.936;11.344;2023-04-25T07:28:17;8.05;;;5.15;;
25854;SDS011;13680;49.936;11.344;2023-04-25T07:30:42;10.55;;;6.55;;
25854;SDS011;13680;49.936;11.344;2023-04-25T07:33:08;8.52;;;5.53;;
25854;SDS011;13680;49.936;11.344;2023-04-25T07:35:33;9.55;;;6.45;;
25854;SDS011;13680;49.936;11.344;2023-04-25T07:37:58;9.45;;;5.63;;
25854;SDS011;13680;49.936;11.344;2023-04-25T07:40:24;7.45;;;6.20;;
25854;SDS011;13680;49.936;11.344;2023-04-25T07:42:49;10.43;;;5.85;;
25854;SDS011;13680;49.936;11.344;2023-04-25T07:45:15;10.40;;;5.65;;
25854;SDS011;13680;49.936;11.344;2023-04-25T07:47:40;8.35;;;5.60;;
25854;SDS011;13680;49.936;11.344;2023-04-25T07:50:05;8.48;;;5.88;;
25854;SDS011;13680;49.936;11.344;2023-04-25T07:52:31;10.80;;;6.32;;
25854;SDS011;13680;49.936;11.344;2023-04-25T07:54:56;10.77;;;6.20;;
25854;SDS011;13680;49.936;11.344;2023-04-25T07:57:23;8.45;;;6.38;;
25854;SDS011;13680;49.936;11.344;2023-04-25T07:59:49;10.70;;;6.63;;
25854;SDS011;13680;49.936;11.344;2023-04-25T08:02:14;9.25;;;6.72;;
25854;SDS011;13680;49.936;11.344;2023-04-25T08:04:40;9.13;;;6.50;;
25854;SDS011;13680;49.936;11.344;2023-04-25T08:07:05;11.23;;;6.15;;
25854;SDS011;13680;49.936;11.344;2023-04-25T08:09:31;13.00;;;6.97;;
25854;SDS011;13680;49.936;11.344;2023-04-25T08:11:59;10.98;;;6.55;;
25854;SDS011;13680;49.936;11.344;2023-04-25T08:14:25;11.02;;;6.57;;
25854;SDS011;13680;49.936;11.344;2023-04-25T08:16:51;9.27;;;5.93;;
25854;SDS011;13680;49.936;11.344;2023-04-25T08:19:16;11.95;;;7.35;;
25854;SDS011;13680;49.936;11.344;2023-04-25T08:21:41;10.35;;;5.90;;
25854;SDS011;13680;49.936;11.344;2023-04-25T08:24:07;11.80;;;5.75;;
25854;SDS011;13680;49.936;11.344;2023-04-25T08:26:32;10.88;;;6.13;;
25854;SDS011;13680;49.936;11.344;2023-04-25T08:28:58;9.57;;;5.53;;
25854;SDS011;13680;49.936;11.344;2023-04-25T08:31:23;9.68;;;5.63;;
25854;SDS011;13680;49.936;11.344;2023-04-25T08:33:48;9.35;;;5.10;;
25854;SDS011;13680;49.936;11.344;2023-04-25T08:36:14;10.23;;;4.68;;
25854;SDS011;13680;49.936;11.344;2023-04-25T08:38:39;9.57;;;5.55;;
25854;SDS011;13680;49.936;11.344;2023-04-25T08:41:05;9.43;;;5.75;;
25854;SDS011;13680;49.936;11.344;2023-04-25T08:43:31;11.35;;;5.70;;
25854;SDS011;13680;49.936;11.344;2023-04-25T08:46:00;12.48;;;5.93;;
25854;SDS011;13680;49.936;11.344;2023-04-25T08:48:29;10.35;;;5.80;;
25854;SDS011;13680;49.936;11.344;2023-04-25T08:50:57;8.02;;;5.25;;
25854;SDS011;13680;49.936;11.344;2023-04-25T08:53:25;9.70;;;5.80;;
25854;SDS011;13680;49.936;11.344;2023-04-25T08:55:55;9.20;;;6.15;;
25854;SDS011;13680;49.936;11.344;2023-04-25T08:58:22;13.85;;;6.60;;
25854;SDS011;13680;49.936;11.344;2023-04-25T09:00:48;9.25;;;6.00;;
25854;SDS011;13680;49.936;11.344;2023-04-25T09:03:14;7.18;;;5.07;;
25854;SDS011;13680;49.936;11.344;2023-04-25T09:05:40;10.10;;;6.35;;
25854;SDS011;13680;49.936;11.344;2023-04-25T09:08:06;11.68;;;5.82;;
25854;SDS011;13680;49.936;11.344;2023-04-25T09:10:32;11.55;;;6.38;;
25854;SDS011;13680;49.936;11.344;2023-04-25T09:13:08;8.23;;;5.25;;
25854;SDS011;13680;49.936;11.344;2023-04-25T09:15:47;9.40;;;6.45;;
25854;SDS011;13680;49.936;11.344;2023-04-25T09:18:14;11.93;;;6.60;;
25854;SDS011;13680;49.936;11.344;2023-04-25T09:20:47;11.23;;;5.93;;
25854;SDS011;13680;49.936;11.344;2023-04-25T09:23:14;9.32;;;5.68;;
25854;SDS011;13680;49.936;11.344;2023-04-25T09:25:40;9.80;;;5.38;;
25854;SDS011;13680;49.936;11.344;2023-04-25T09:28:06;9.77;;;4.88;;
25854;SDS011;13680;49.936;11.344;2023-04-25T09:30:34;8.32;;;4.70;;
25854;SDS011;13680;49.936;11.344;2023-04-25T09:33:04;11.10;;;5.07;;
25854;SDS011;13680;49.936;11.344;2023-04-25T09:35:40;8.43;;;4.13;;
25854;SDS011;13680;49.936;11.344;2023-04-25T09:38:11;8.15;;;3.33;;
25854;SDS011;13680;49.936;11.344;2023-04-25T09:40:42;8.00;;;4.25;;
25854;SDS011;13680;49.936;11.344;2023-04-25T09:43:18;7.25;;;4.10;;
25854;SDS011;13680;49.936;11.344;2023-04-25T09:45:47;8.48;;;4.65;;
25854;SDS011;13680;49.936;11.344;2023-04-25T09:48:20;9.88;;;4.32;;
25854;SDS011;13680;49.936;11.344;2023-04-25T09:53:31;14.82;;;5.65;;
25854;SDS011;13680;49.936;11.344;2023-04-25T09:55:58;11.50;;;4.70;;
25854;SDS011;13680;49.936;11.344;2023-04-25T09:58:25;11.18;;;5.60;;
25854;SDS011;13680;49.936;11.344;2023-04-25T10:00:54;6.45;;;4.10;;
25854;SDS011;13680;49.936;11.344;2023-04-25T10:03:25;8.13;;;3.75;;
25854;SDS011;13680;49.936;11.344;2023-04-25T10:05:52;6.63;;;3.22;;
25854;SDS011;13680;49.936;11.344;2023-04-25T10:08:18;7.70;;;3.22;;
25854;SDS011;13680;49.936;11.344;2023-04-25T10:10:44;5.90;;;2.92;;
25854;SDS011;13680;49.936;11.344;2023-04-25T10:13:11;7.80;;;2.97;;
25854;SDS011;13680;49.936;11.344;2023-04-25T10:15:39;9.55;;;3.28;;
25854;SDS011;13680;49.936;11.344;2023-04-25T10:18:05;7.07;;;3.28;;
25854;SDS011;13680;49.936;11.344;2023-04-25T10:20:31;4.75;;;2.60;;
25854;SDS011;13680;49.936;11.344;2023-04-25T10:22:58;4.63;;;2.33;;
25854;SDS011;13680;49.936;11.344;2023-04-25T10:25:34;3.60;;;2.13;;
25854;SDS011;13680;49.936;11.344;2023-04-25T10:28:00;5.43;;;2.58;;
25854;SDS011;13680;49.936;11.344;2023-04-25T10:30:29;3.65;;;2.25;;
25854;SDS011;13680;49.936;11.344;2023-04-25T10:32:55;4.95;;;2.70;;
25854;SDS011;13680;49.936;11.344;2023-04-25T10:35:27;6.18;;;2.72;;
25854;SDS011;13680;49.936;11.344;2023-04-25T10:40:30;5.70;;;2.10;;
25854;SDS011;13680;49.936;11.344;2023-04-25T10:42:56;5.15;;;2.38;;
25854;SDS011;13680;49.936;11.344;2023-04-25T10:45:56;4.10;;;2.00;;
25854;SDS011;13680;49.936;11.344;2023-04-25T10:48:27;4.68;;;2.05;;
25854;SDS011;13680;49.936;11.344;2023-04-25T10:51:09;3.42;;;2.13;;
25854;SDS011;13680;49.936;11.344;2023-04-25T10:53:34;5.85;;;3.97;;
25854;SDS011;13680;49.936;11.344;2023-04-25T10:56:00;4.47;;;2.60;;
25854;SDS011;13680;49.936;11.344;2023-04-25T10:58:34;2.55;;;1.30;;
25854;SDS011;13680;49.936;11.344;2023-04-25T11:01:00;4.82;;;3.35;;
25854;SDS011;13680;49.936;11.344;2023-04-25T11:03:26;3.60;;;1.30;;
25854;SDS011;13680;49.936;11.344;2023-04-25T11:05:51;1.70;;;1.20;;
25854;SDS011;13680;49.936;11.344;2023-04-25T11:08:18;2.65;;;1.40;;
25854;SDS011;13680;49.936;11.344;2023-04-25T11:10:58;5.85;;;1.33;;
25854;SDS011;13680;49.936;11.344;2023-04-25T11:13:28;1.33;;;1.00;;
25854;SDS011;13680;49.936;11.344;2023-04-25T11:15:54;2.38;;;1.50;;
25854;SDS011;13680;49.936;11.344;2023-04-25T11:18:20;3.47;;;1.15;;
25854;SDS011;13680;49.936;11.344;2023-04-25T11:20:46;2.30;;;1.38;;
25854;SDS011;13680;49.936;11.344;2023-04-25T11:23:13;2.33;;;1.40;;
25854;SDS011;13680;49.936;11.344;2023-04-25T11:25:40;1.45;;;1.20;;
25854;SDS011;13680;49.936;11.344;2023-04-25T11:28:05;3.35;;;1.40;;
25854;SDS011;13680;49.936;11.344;2023-04-25T11:30:31;1.40;;;1.30;;
25854;SDS011;13680;49.936;11.344;2023-04-25T11:32:56;2.55;;;1.33;;
25854;SDS011;13680;49.936;11.344;2023-04-25T11:35:21;3.67;;;1.00;;
25854;SDS011;13680;49.936;11.344;2023-04-25T11:37:48;1.92;;;1.10;;
25854;SDS011;13680;49.936;11.344;2023-04-25T11:40:14;1.98;;;1.38;;
25854;SDS011;13680;49.936;11.344;2023-04-25T11:42:43;2.42;;;1.40;;
25854;SDS011;13680;49.936;11.344;2023-04-25T11:45:10;2.28;;;1.60;;
25854;SDS011;13680;49.936;11.344;2023-04-25T11:47:36;2.95;;;1.65;;
25854;SDS011;13680;49.936;11.344;2023-04-25T11:50:02;4.60;;;1.55;;
25854;SDS011;13680;49.936;11.344;2023-04-25T11:52:42;2.22;;;1.40;;
25854;SDS011;13680;49.936;11.344;2023-04-25T11:55:12;2.13;;;1.40;;
25854;SDS011;13680;49.936;11.344;2023-04-25T11:57:38;1.98;;;1.50;;
25854;SDS011;13680;49.936;11.344;2023-04-25T12:00:06;3.28;;;2.05;;
25854;SDS011;13680;49.936;11.344;2023-04-25T12:02:34;5.25;;;1.88;;
25854;SDS011;13680;49.936;11.344;2023-04-25T12:05:01;2.80;;;1.63;;
25854;SDS011;13680;49.936;11.344;2023-04-25T12:07:29;4.30;;;2.42;;
25854;SDS011;13680;49.936;11.344;2023-04-25T12:09:55;2.38;;;1.55;;
25854;SDS011;13680;49.936;11.344;2023-04-25T12:12:20;3.13;;;1.70;;
25854;SDS011;13680;49.936;11.344;2023-04-25T12:14:46;2.38;;;1.83;;
25854;SDS011;13680;49.936;11.344;2023-04-25T12:17:16;7.05;;;1.90;;
25854;SDS011;13680;49.936;11.344;2023-04-25T12:19:41;5.40;;;1.90;;
25854;SDS011;13680;49.936;11.344;2023-04-25T12:22:21;6.32;;;3.80;;
25854;SDS011;13680;49.936;11.344;2023-04-25T12:24:48;22.85;;;11.30;;
25854;SDS011;13680;49.936;11.344;2023-04-25T12:27:14;6.35;;;2.20;;
25854;SDS011;13680;49.936;11.344;2023-04-25T12:29:50;4.30;;;2.00;;
25854;SDS011;13680;49.936;11.344;2023-04-25T12:32:17;3.80;;;1.90;;
25854;SDS011;13680;49.936;11.344;2023-04-25T12:34:42;30.27;;;11.70;;
25854;SDS011;13680;49.936;11.344;2023-04-25T12:37:08;2.10;;;1.83;;
25854;SDS011;13680;49.936;11.344;2023-04-25T12:39:34;3.22;;;2.00;;
25854;SDS011;13680;49.936;11.344;2023-04-25T12:41:59;5.45;;;2.28;;
25854;SDS011;13680;49.936;11.344;2023-04-25T12:44:26;4.75;;;2.10;;
25854;SDS011;13680;49.936;11.344;2023-04-25T12:46:51;6.90;;;2.83;;
25854;SDS011;13680;49.936;11.344;2023-04-25T12:49:17;8.90;;;4.10;;
25854;SDS011;13680;49.936;11.344;2023-04-25T12:51:42;4.70;;;2.67;;
25854;SDS011;13680;49.936;11.344;2023-04-25T12:54:08;3.55;;;2.20;;
25854;SDS011;13680;49.936;11.344;2023-04-25T12:56:33;3.53;;;2.10;;
25854;SDS011;13680;49.936;11.344;2023-04-25T12:58:59;5.55;;;2.50;;
25854;SDS011;13680;49.936;11.344;2023-04-25T13:01:25;3.50;;;2.20;;
25854;SDS011;13680;49.936;11.344;2023-04-25T13:03:51;2.63;;;1.92;;
25854;SDS011;13680;49.936;11.344;2023-04-25T13:06:17;4.57;;;2.80;;
25854;SDS011;13680;49.936;11.344;2023-04-25T13:08:44;4.05;;;2.00;;
25854;SDS011;13680;49.936;11.344;2023-04-25T13:11:10;2.85;;;2.08;;
25854;SDS011;13680;49.936;11.344;2023-04-25T13:13:36;6.13;;;2.55;;
25854;SDS011;13680;49.936;11.344;2023-04-25T13:16:02;6.82;;;2.35;;
25854;SDS011;13680;49.936;11.344;2023-04-25T13:18:28;4.28;;;2.20;;
25854;SDS011;13680;49.936;11.344;2023-04-25T13:20:54;5.75;;;2.55;;
25854;SDS011;13680;49.936;11.344;2023-04-25T13:23:19;6.00;;;2.70;;
25854;SDS011;13680;49.936;11.344;2023-04-25T13:25:45;5.97;;;4.18;;
25854;SDS011;13680;49.936;11.344;2023-04-25T13:28:11;5.28;;;3.95;;
25854;SDS011;13680;49.936;11.344;2023-04-25T13:30:37;4.53;;;3.35;;
25854;SDS011;13680;49.936;11.344;2023-04-25T13:33:02;4.82;;;3.10;;
25854;SDS011;13680;49.936;11.344;2023-04-25T13:35:28;7.55;;;4.13;;
25854;SDS011;13680;49.936;11.344;2023-04-25T13:37:55;3.00;;;2.33;;
25854;SDS011;13680;49.936;11.344;2023-04-25T13:40:21;4.70;;;2.97;;
25854;SDS011;13680;49.936;11.344;2023-04-25T13:42:46;4.85;;;2.55;;
25854;SDS011;13680;49.936;11.344;2023-04-25T13:45:11;4.28;;;2.58;;
25854;SDS011;13680;49.936;11.344;2023-04-25T13:47:37;3.45;;;2.30;;
25854;SDS011;13680;49.936;11.344;2023-04-25T13:50:03;4.10;;;2.22;;
25854;SDS011;13680;49.936;11.344;2023-04-25T13:52:30;4.40;;;2.03;;
25854;SDS011;13680;49.936;11.344;2023-04-25T13:54:56;2.28;;;1.85;;
25854;SDS011;13680;49.936;11.344;2023-04-25T13:57:22;4.72;;;2.20;;
25854;SDS011;13680;49.936;11.344;2023-04-25T13:59:47;5.70;;;2.60;;
25854;SDS011;13680;49.936;11.344;2023-04-25T14:02:13;3.08;;;2.05;;
25854;SDS011;13680;49.936;11.344;2023-04-25T14:04:38;3.53;;;2.33;;
25854;SDS011;13680;49.936;11.344;2023-04-25T14:07:03;3.90;;;2.25;;
25854;SDS011;13680;49.936;11.344;2023-04-25T14:09:30;2.92;;;2.08;;
25854;SDS011;13680;49.936;11.344;2023-04-25T14:11:55;3.22;;;1.80;;
25854;SDS011;13680;49.936;11.344;2023-04-25T14:14:21;4.22;;;1.42;;
25854;SDS011;13680;49.936;11.344;2023-04-25T14:16:47;9.93;;;2.60;;
25854;SDS011;13680;49.936;11.344;2023-04-25T14:19:15;4.18;;;2.00;;
25854;SDS011;13680;49.936;11.344;2023-04-25T14:21:41;4.63;;;2.17;;
25854;SDS011;13680;49.936;11.344;2023-04-25T14:24:08;5.10;;;2.20;;
25854;SDS011;13680;49.936;11.344;2023-04-25T14:26:34;4.00;;;2.25;;
25854;SDS011;13680;49.936;11.344;2023-04-25T14:29:01;4.68;;;2.33;;
25854;SDS011;13680;49.936;11.344;2023-04-25T14:31:26;4.13;;;2.28;;